createdAt,value
2023-01-12T00:02:21.783Z,98277.72
2023-01-12T00:04:50.488Z,98291.16
2023-01-12T00:07:20.382Z,98282.28
2023-01-12T00:09:49.165Z,98279.59
2023-01-12T00:12:19.084Z,98284.97
2023-01-12T00:14:47.667Z,98294.81
2023-01-12T00:17:19.489Z,98300.19
2023-01-12T00:19:48.046Z,98291.31
2023-01-12T00:22:18.583Z,98302.06
2023-01-12T00:24:49.927Z,98303.75
2023-01-12T00:27:21.767Z,98307.41
2023-01-12T00:29:50.489Z,98305.56
2023-01-12T00:32:20.944Z,98302.06
2023-01-12T00:34:49.517Z,98302.06
2023-01-12T00:37:19.511Z,98305.41
2023-01-12T00:40:01.332Z,98302.06
2023-01-12T00:42:49.819Z,98309.28
2023-01-12T00:45:24.708Z,98312.78
2023-01-12T00:47:54.578Z,98317.31
2023-01-12T00:50:23.699Z,98318.16
2023-01-12T00:52:52.294Z,98321.84
2023-01-12T00:55:21.075Z,98320.84
2023-01-12T00:57:51.036Z,98312.97
2023-01-12T01:00:20.386Z,98321.03
2023-01-12T01:02:49.016Z,98317.47
2023-01-12T01:05:18.704Z,98317.47
2023-01-12T01:07:47.529Z,98320.16
2023-01-12T01:10:16.441Z,98315.66
2023-01-12T01:12:45.562Z,98319.34
2023-01-12T01:15:15.483Z,98316.66
2023-01-12T01:17:45.111Z,98330.91
2023-01-12T01:20:14.032Z,98331.91
2023-01-12T01:22:42.691Z,98334.59
2023-01-12T01:25:11.588Z,98339.81
2023-01-12T01:27:40.332Z,98348.03
2023-01-12T01:30:11.254Z,98338.13
2023-01-12T01:32:41.285Z,98341.00
2023-01-12T01:35:11.116Z,98331.09
2023-01-12T01:37:39.670Z,98331.09
2023-01-12T01:40:10.298Z,98325.72
2023-01-12T01:42:38.826Z,98331.91
2023-01-12T01:45:10.970Z,98325.72
2023-01-12T01:47:43.106Z,98342.66
2023-01-12T01:50:18.270Z,98341.81
2023-01-12T01:52:49.326Z,98346.19
2023-01-12T01:55:20.430Z,98349.06
2023-01-12T01:57:51.928Z,98351.72
2023-01-12T02:00:20.793Z,98341.00
2023-01-12T02:02:50.804Z,98340.13
2023-01-12T02:05:21.228Z,98340.13
2023-01-12T02:07:50.010Z,98344.66
2023-01-12T02:10:19.797Z,98351.72
2023-01-12T02:13:05.937Z,98352.72
2023-01-12T02:15:56.584Z,98349.22
2023-01-12T02:18:29.376Z,98342.81
2023-01-12T02:21:10.159Z,98348.38
2023-01-12T02:23:58.513Z,98352.72
2023-01-12T02:27:04.784Z,98353.75
2023-01-12T02:30:30.378Z,98344.03
2023-01-12T02:33:13.635Z,98356.59
2023-01-12T02:35:45.967Z,98351.88
2023-01-12T02:38:18.655Z,98359.13
2023-01-12T02:40:53.131Z,98362.81
2023-01-12T02:43:24.552Z,98360.97
2023-01-12T02:45:55.879Z,98364.47
2023-01-12T02:48:28.680Z,98357.44
2023-01-12T02:51:02.470Z,98354.75
2023-01-12T02:53:35.289Z,98352.91
2023-01-12T02:56:05.842Z,98350.38
2023-01-12T02:58:36.940Z,98344.03
2023-01-12T03:01:06.071Z,98350.38
2023-01-12T03:03:36.272Z,98353.06
2023-01-12T03:06:05.298Z,98355.75
2023-01-12T03:08:34.062Z,98361.13
2023-01-12T03:11:08.815Z,98355.75
2023-01-12T03:13:38.431Z,98361.13
2023-01-12T03:16:07.538Z,98361.13
2023-01-12T03:18:40.503Z,98360.97
2023-01-12T03:21:12.850Z,98366.50
2023-01-12T03:23:44.354Z,98367.31
2023-01-12T03:26:13.054Z,98361.13
2023-01-12T03:28:43.548Z,98364.81
2023-01-12T03:31:13.563Z,98366.50
2023-01-12T03:33:44.473Z,98359.47
2023-01-12T03:36:21.717Z,98362.97
2023-01-12T03:39:02.461Z,98368.34
2023-01-12T03:41:38.987Z,98367.50
2023-01-12T03:44:10.740Z,98367.66
2023-01-12T03:46:41.607Z,98364.00
2023-01-12T03:49:16.407Z,98369.34
2023-01-12T03:51:46.668Z,98370.19
2023-01-12T03:54:15.467Z,98370.19
2023-01-12T03:56:44.859Z,98371.19
2023-01-12T03:59:13.553Z,98370.19
2023-01-12T04:01:43.557Z,98372.88
2023-01-12T04:04:13.606Z,98368.50
2023-01-12T04:06:42.241Z,98363.13
2023-01-12T04:09:11.010Z,98358.63
2023-01-12T04:11:57.057Z,98356.06
2023-01-12T04:14:26.054Z,98356.94
2023-01-12T04:16:55.168Z,98359.63
2023-01-12T04:19:25.265Z,98364.13
2023-01-12T04:22:11.181Z,98364.13
2023-01-12T04:24:39.759Z,98368.50
2023-01-12T04:27:08.631Z,98366.81
2023-01-12T04:29:37.300Z,98375.72
2023-01-12T04:32:06.357Z,98374.72
2023-01-12T04:34:36.628Z,98377.53
2023-01-12T04:37:05.221Z,98371.34
2023-01-12T04:39:33.748Z,98382.91
2023-01-12T04:42:05.839Z,98379.38
2023-01-12T04:44:35.060Z,98385.59
2023-01-12T04:47:03.906Z,98388.28
2023-01-12T04:49:32.471Z,98395.50
2023-01-12T04:52:02.570Z,98387.44
2023-01-12T04:54:31.163Z,98389.13
2023-01-12T04:56:59.816Z,98388.28
2023-01-12T04:59:28.345Z,98388.28
2023-01-12T05:01:57.248Z,98386.59
2023-01-12T05:04:26.334Z,98382.91
2023-01-12T05:06:55.092Z,98380.22
2023-01-12T05:09:42.822Z,98381.25
2023-01-12T05:12:11.552Z,98386.59
2023-01-12T05:14:40.235Z,98378.56
2023-01-12T05:17:08.971Z,98384.75
2023-01-12T05:19:37.507Z,98390.97
2023-01-12T05:22:06.275Z,98390.13
2023-01-12T05:24:36.441Z,98393.63
2023-01-12T05:27:05.343Z,98394.66
2023-01-12T05:29:34.056Z,98394.66
2023-01-12T05:32:02.626Z,98398.16
2023-01-12T05:34:31.335Z,98408.91
2023-01-12T05:37:00.007Z,98410.75
2023-01-12T05:39:28.505Z,98407.06
2023-01-12T05:42:15.705Z,98402.72
2023-01-12T05:44:44.404Z,98401.84
2023-01-12T05:47:13.107Z,98403.53
2023-01-12T05:49:41.749Z,98408.06
2023-01-12T05:52:10.472Z,98411.59
2023-01-12T05:54:39.071Z,98421.50
2023-01-12T05:57:09.249Z,98415.09
2023-01-12T05:59:38.007Z,98415.44
2023-01-12T06:02:06.609Z,98413.75
2023-01-12T06:04:35.452Z,98418.81
2023-01-12T06:07:04.124Z,98431.22
2023-01-12T06:09:32.910Z,98424.84
2023-01-12T06:12:18.984Z,98415.47
2023-01-12T06:14:49.107Z,98417.66
2023-01-12T06:17:17.719Z,98425.84
2023-01-12T06:19:46.440Z,98423.16
2023-01-12T06:22:15.360Z,98421.88
2023-01-12T06:24:46.217Z,98415.63
2023-01-12T06:27:14.963Z,98426.38
2023-01-12T06:29:43.598Z,98428.91
2023-01-12T06:32:13.808Z,98433.25
2023-01-12T06:34:42.528Z,98436.94
2023-01-12T06:37:13.271Z,98421.88
2023-01-12T06:39:41.840Z,98422.34
2023-01-12T06:42:29.614Z,98416.50
2023-01-12T06:44:58.489Z,98424.34
2023-01-12T06:47:31.252Z,98436.25
2023-01-12T06:49:59.907Z,98428.22
2023-01-12T06:52:30.290Z,98423.88
2023-01-12T06:54:59.390Z,98427.53
2023-01-12T06:57:28.158Z,98427.69
2023-01-12T06:59:57.216Z,98431.38
2023-01-12T07:02:27.312Z,98436.56
2023-01-12T07:04:55.906Z,98445.50
2023-01-12T07:07:24.473Z,98435.75
2023-01-12T07:09:53.159Z,98444.63
2023-01-12T07:12:22.005Z,98433.06
2023-01-12T07:14:50.658Z,98431.22
2023-01-12T07:17:20.548Z,98439.25
2023-01-12T07:19:50.658Z,98441.94
2023-01-12T07:22:19.178Z,98449.16
2023-01-12T07:24:47.789Z,98452.00
2023-01-12T07:27:16.515Z,98451.00
2023-01-12T07:29:46.794Z,98450.16
2023-01-12T07:32:15.390Z,98456.38
2023-01-12T07:34:45.018Z,98451.00
2023-01-12T07:37:15.039Z,98453.69
2023-01-12T07:39:44.078Z,98459.91
2023-01-12T07:42:24.830Z,98452.69
2023-01-12T07:44:53.540Z,98440.13
2023-01-12T07:47:22.222Z,98444.50
2023-01-12T07:49:51.026Z,98446.16
2023-01-12T07:52:21.026Z,98450.72
2023-01-12T07:54:49.767Z,98442.66
2023-01-12T07:57:18.610Z,98445.34
2023-01-12T07:59:47.501Z,98448.19
2023-01-12T08:02:17.083Z,98454.38
2023-01-12T08:04:45.978Z,98454.38
2023-01-12T08:07:15.197Z,98465.97
2023-01-12T08:09:45.382Z,98460.59
2023-01-12T08:12:13.916Z,98453.69
2023-01-12T08:14:43.157Z,98453.19
2023-01-12T08:17:14.553Z,98450.38
2023-01-12T08:19:45.340Z,98446.66
2023-01-12T08:22:17.507Z,98444.16
2023-01-12T08:24:51.419Z,98453.06
2023-01-12T08:27:20.236Z,98451.19
2023-01-12T08:29:50.071Z,98446.66
2023-01-12T08:32:18.895Z,98450.19
2023-01-12T08:34:49.411Z,98439.44
2023-01-12T08:37:19.884Z,98458.22
2023-01-12T08:39:50.415Z,98458.91
2023-01-12T08:42:19.644Z,98456.41
2023-01-12T08:44:48.581Z,98450.84
2023-01-12T08:47:19.300Z,98455.22
2023-01-12T08:49:48.091Z,98448.00
2023-01-12T08:52:17.037Z,98450.84
2023-01-12T08:54:45.963Z,98458.06
2023-01-12T08:57:16.476Z,98458.06
2023-01-12T08:59:45.127Z,98467.97
2023-01-12T09:02:14.172Z,98460.75
2023-01-12T09:04:43.002Z,98463.44
2023-01-12T09:07:12.796Z,98456.22
2023-01-12T09:09:41.478Z,98462.41
2023-01-12T09:12:10.397Z,98460.59
2023-01-12T09:14:40.536Z,98464.94
2023-01-12T09:17:09.305Z,98454.06
2023-01-12T09:19:38.139Z,98457.38
2023-01-12T09:22:06.833Z,98456.22
2023-01-12T09:24:35.513Z,98445.34
2023-01-12T09:27:04.482Z,98450.16
2023-01-12T09:29:33.173Z,98442.81
2023-01-12T09:32:03.517Z,98441.28
2023-01-12T09:34:32.352Z,98421.66
2023-01-12T09:37:01.859Z,98436.56
2023-01-12T09:39:31.133Z,98429.03
2023-01-12T09:42:17.025Z,98431.56
2023-01-12T09:45:04.728Z,98418.16
2023-01-12T09:47:39.788Z,98409.09
2023-01-12T09:50:11.274Z,98409.09
2023-01-12T09:52:43.138Z,98417.81
2023-01-12T09:55:17.891Z,98410.44
2023-01-12T09:58:15.819Z,98423.03
2023-01-12T10:00:44.326Z,98415.81
2023-01-12T10:03:17.889Z,98409.41
2023-01-12T10:05:48.912Z,98404.03
2023-01-12T10:08:30.159Z,98405.06
2023-01-12T10:11:07.635Z,98398.69
2023-01-12T10:14:10.583Z,98388.97
2023-01-12T10:17:05.850Z,98388.63
2023-01-12T10:19:41.015Z,98389.28
2023-01-12T10:22:17.653Z,98394.81
2023-01-12T10:24:46.483Z,98396.50
2023-01-12T10:27:15.707Z,98391.16
2023-01-12T10:29:44.353Z,98395.66
2023-01-12T10:32:15.718Z,98399.34
2023-01-12T10:34:52.895Z,98403.69
2023-01-12T10:37:21.458Z,98398.34
2023-01-12T10:39:50.366Z,98401.03
2023-01-12T10:42:39.208Z,98391.31
2023-01-12T10:45:17.713Z,98395.66
2023-01-12T10:47:46.868Z,98384.06
2023-01-12T10:50:28.660Z,98372.50
2023-01-12T10:53:00.596Z,98374.38
2023-01-12T10:55:32.995Z,98375.19
2023-01-12T10:58:02.056Z,98374.16
2023-01-12T11:00:30.970Z,98374.16
2023-01-12T11:02:59.699Z,98366.78
2023-01-12T11:05:34.272Z,98372.84
2023-01-12T11:08:03.205Z,98379.19
2023-01-12T11:10:33.246Z,98384.56
2023-01-12T11:13:03.585Z,98384.75
2023-01-12T11:15:35.686Z,98365.47
2023-01-12T11:18:29.774Z,98363.44
2023-01-12T11:21:03.143Z,98350.00
2023-01-12T11:23:35.325Z,98346.34
2023-01-12T11:26:04.336Z,98348.00
2023-01-12T11:28:36.072Z,98347.19
2023-01-12T11:31:09.050Z,98342.81
2023-01-12T11:33:40.905Z,98333.91
2023-01-12T11:36:13.121Z,98336.59
2023-01-12T11:38:43.460Z,98340.16
2023-01-12T11:41:23.922Z,98334.78
2023-01-12T11:43:57.828Z,98340.16
2023-01-12T11:46:29.874Z,98335.59
2023-01-12T11:49:07.619Z,98309.75
2023-01-12T11:51:39.272Z,98316.97
2023-01-12T11:54:08.347Z,98310.63
2023-01-12T11:57:13.586Z,98308.91
2023-01-12T11:59:47.237Z,98310.09
2023-01-12T12:02:30.363Z,98305.41
2023-01-12T12:05:06.932Z,98307.06
2023-01-12T12:07:56.245Z,98307.25
2023-01-12T12:10:27.642Z,98304.56
2023-01-12T12:13:26.900Z,98301.88
2023-01-12T12:16:07.308Z,98291.97
2023-01-12T12:18:46.875Z,98292.81
2023-01-12T12:21:34.760Z,98288.28
2023-01-12T12:24:11.462Z,98283.94
2023-01-12T12:26:41.683Z,98279.38
2023-01-12T12:29:26.457Z,98287.44
2023-01-12T12:32:18.729Z,98289.31
2023-01-12T12:35:12.789Z,98278.56
2023-01-12T12:37:50.559Z,98284.97
2023-01-12T12:40:55.432Z,98284.97
2023-01-12T12:43:46.732Z,98288.47
2023-01-12T12:46:22.750Z,98293.66
2023-01-12T12:48:58.551Z,98275.88
2023-01-12T12:51:27.873Z,98283.09
2023-01-12T12:53:56.692Z,98270.50
2023-01-12T12:56:26.813Z,98272.38
2023-01-12T12:58:55.969Z,98279.59
2023-01-12T13:01:56.044Z,98274.22
2023-01-12T13:05:05.059Z,98282.28
2023-01-12T13:07:38.044Z,98274.22
2023-01-12T13:10:29.984Z,98276.03
2023-01-12T13:13:04.034Z,98277.06
2023-01-12T13:15:37.168Z,98274.53
2023-01-12T13:18:07.110Z,98267.16
2023-01-12T13:20:54.497Z,98274.22
2023-01-12T13:23:47.574Z,98263.81
2023-01-12T13:26:45.789Z,98254.41
2023-01-12T13:29:39.988Z,98257.25
2023-01-12T13:32:45.412Z,98257.09
2023-01-12T13:35:57.811Z,98253.72
2023-01-12T13:38:52.604Z,98252.91
2023-01-12T13:41:46.873Z,98251.88
2023-01-12T13:44:24.415Z,98250.88
2023-01-12T13:46:59.633Z,98242.00
2023-01-12T13:49:32.620Z,98246.50
2023-01-12T13:52:03.388Z,98248.22
2023-01-12T13:54:32.257Z,98242.16
2023-01-12T13:57:02.373Z,98243.00
2023-01-12T13:59:31.151Z,98233.97
2023-01-12T14:02:01.312Z,98242.84
2023-01-12T14:05:01.831Z,98240.31
2023-01-12T14:07:41.835Z,98238.47
2023-01-12T14:10:28.565Z,98233.09
2023-01-12T14:13:42.593Z,98224.22
2023-01-12T14:16:30.599Z,98217.00
2023-01-12T14:19:00.674Z,98228.75
2023-01-12T14:21:32.888Z,98225.03
2023-01-12T14:24:16.477Z,98223.53
2023-01-12T14:26:45.099Z,98223.22
2023-01-12T14:29:13.886Z,98228.59
2023-01-12T14:31:44.663Z,98234.94
2023-01-12T14:34:27.402Z,98232.25
2023-01-12T14:36:56.320Z,98222.53
2023-01-12T14:39:27.053Z,98216.34
2023-01-12T14:42:13.744Z,98213.66
2023-01-12T14:45:08.097Z,98227.09
2023-01-12T14:47:36.954Z,98214.00
2023-01-12T14:50:20.744Z,98221.72
2023-01-12T14:52:49.667Z,98221.53
2023-01-12T14:55:19.291Z,98225.91
2023-01-12T14:57:50.110Z,98226.53
2023-01-12T15:00:22.791Z,98231.44
2023-01-12T15:02:52.189Z,98236.63
2023-01-12T15:05:25.529Z,98236.63
2023-01-12T15:07:56.881Z,98239.13
2023-01-12T15:10:33.613Z,98233.41
2023-01-12T15:13:26.407Z,98234.25
2023-01-12T15:16:13.216Z,98231.56
2023-01-12T15:18:59.887Z,98233.59
2023-01-12T15:21:48.419Z,98226.38
2023-01-12T15:24:40.477Z,98220.81
2023-01-12T15:27:09.535Z,98220.81
2023-01-12T15:29:38.498Z,98225.19
2023-01-12T15:32:07.438Z,98222.31
2023-01-12T15:34:36.262Z,98231.88
2023-01-12T15:37:06.360Z,98224.84
2023-01-12T15:39:35.116Z,98225.66
2023-01-12T15:42:20.221Z,98220.31
2023-01-12T15:44:49.920Z,98217.63
2023-01-12T15:47:19.748Z,98212.25
2023-01-12T15:49:49.441Z,98225.66
2023-01-12T15:52:21.231Z,98219.47
2023-01-12T15:54:49.982Z,98213.44
2023-01-12T15:57:18.705Z,98222.16
2023-01-12T15:59:47.218Z,98217.81
2023-01-12T16:02:27.747Z,98213.75
2023-01-12T16:04:56.273Z,98212.09
2023-01-12T16:07:26.589Z,98212.09
2023-01-12T16:09:55.794Z,98216.94
2023-01-12T16:12:24.751Z,98214.47
2023-01-12T16:14:53.559Z,98212.59
2023-01-12T16:17:22.411Z,98213.63
2023-01-12T16:19:50.953Z,98211.09
2023-01-12T16:22:22.044Z,98208.41
2023-01-12T16:24:52.553Z,98213.78
2023-01-12T16:27:23.335Z,98198.03
2023-01-12T16:29:52.154Z,98205.06
2023-01-12T16:32:23.955Z,98201.75
2023-01-12T16:34:52.601Z,98206.09
2023-01-12T16:37:23.214Z,98215.81
2023-01-12T16:39:53.284Z,98213.13
2023-01-12T16:42:22.174Z,98199.06
2023-01-12T16:44:51.184Z,98205.25
2023-01-12T16:47:20.961Z,98196.38
2023-01-12T16:49:50.160Z,98193.69
2023-01-12T16:52:20.239Z,98186.63
2023-01-12T16:54:48.835Z,98182.09
2023-01-12T16:57:19.430Z,98191.16
2023-01-12T16:59:49.717Z,98176.09
2023-01-12T17:02:19.953Z,98177.75
2023-01-12T17:04:52.337Z,98168.88
2023-01-12T17:07:21.284Z,98167.19
2023-01-12T17:09:50.002Z,98173.41
2023-01-12T17:12:20.293Z,98167.19
2023-01-12T17:14:49.138Z,98161.81
2023-01-12T17:17:17.778Z,98162.84
2023-01-12T17:19:46.548Z,98163.66
2023-01-12T17:22:15.269Z,98165.53
2023-01-12T17:24:44.081Z,98162.66
2023-01-12T17:27:12.818Z,98161.81
2023-01-12T17:29:43.038Z,98168.03
2023-01-12T17:32:11.621Z,98162.66
2023-01-12T17:34:43.255Z,98168.03
2023-01-12T17:37:12.013Z,98160.81
2023-01-12T17:39:42.626Z,98163.50
2023-01-12T17:42:29.952Z,98168.03
2023-01-12T17:45:00.067Z,98156.44
2023-01-12T17:47:28.756Z,98158.13
2023-01-12T17:49:57.342Z,98159.13
2023-01-12T17:52:26.265Z,98158.13
2023-01-12T17:54:54.955Z,98151.75
2023-01-12T17:57:23.563Z,98154.44
2023-01-12T17:59:52.358Z,98152.75
2023-01-12T18:02:22.383Z,98149.25
2023-01-12T18:04:51.098Z,98144.72
2023-01-12T18:07:19.909Z,98139.34
2023-01-12T18:09:48.546Z,98142.38
2023-01-12T18:12:20.799Z,98147.56
2023-01-12T18:14:49.819Z,98144.88
2023-01-12T18:17:18.421Z,98146.72
2023-01-12T18:19:49.049Z,98144.03
2023-01-12T18:22:17.688Z,98145.06
2023-01-12T18:24:46.324Z,98138.69
2023-01-12T18:27:14.846Z,98142.38
2023-01-12T18:29:43.866Z,98137.84
2023-01-12T18:32:12.488Z,98139.69
2023-01-12T18:34:41.566Z,98136.00
2023-01-12T18:37:13.692Z,98136.16
2023-01-12T18:39:44.334Z,98124.59
2023-01-12T18:42:30.564Z,98136.00
2023-01-12T18:44:59.690Z,98129.59
2023-01-12T18:47:45.784Z,98133.47
2023-01-12T18:50:32.007Z,98129.59
2023-01-12T18:53:19.802Z,98120.91
2023-01-12T18:55:51.033Z,98130.63
2023-01-12T18:58:19.604Z,98119.72
2023-01-12T19:00:48.262Z,98123.59
2023-01-12T19:03:17.443Z,98126.91
2023-01-12T19:05:57.353Z,98127.94
2023-01-12T19:08:46.484Z,98130.78
2023-01-12T19:11:16.361Z,98121.06
2023-01-12T19:14:02.466Z,98126.63
2023-01-12T19:16:48.851Z,98124.28
2023-01-12T19:19:21.945Z,98121.44
2023-01-12T19:22:08.009Z,98123.75
2023-01-12T19:25:01.068Z,98125.25
2023-01-12T19:27:47.125Z,98137.84
2023-01-12T19:30:16.057Z,98122.94
2023-01-12T19:32:44.955Z,98134.97
2023-01-12T19:35:13.503Z,98124.22
2023-01-12T19:37:42.664Z,98124.22
2023-01-12T19:40:19.713Z,98115.19
2023-01-12T19:43:05.951Z,98119.38
2023-01-12T19:45:37.604Z,98116.84
2023-01-12T19:48:07.523Z,98122.22
2023-01-12T19:50:36.505Z,98116.84
2023-01-12T19:53:05.792Z,98111.47
2023-01-12T19:55:36.391Z,98110.66
2023-01-12T19:58:08.816Z,98126.59
2023-01-12T20:00:38.051Z,98115.84
2023-01-12T20:03:06.814Z,98123.03
2023-01-12T20:05:35.674Z,98119.53
2023-01-12T20:08:04.357Z,98116.84
2023-01-12T20:10:33.303Z,98112.50
2023-01-12T20:13:03.265Z,98107.97
2023-01-12T20:15:32.064Z,98114.16
2023-01-12T20:18:03.074Z,98109.81
2023-01-12T20:20:32.032Z,98126.75
2023-01-12T20:23:00.689Z,98124.91
2023-01-12T20:25:29.437Z,98114.38
2023-01-12T20:27:58.405Z,98121.38
2023-01-12T20:30:43.746Z,98125.72
2023-01-12T20:33:12.532Z,98120.56
2023-01-12T20:35:45.888Z,98109.63
2023-01-12T20:38:16.482Z,98105.13
2023-01-12T20:40:45.506Z,98106.78
2023-01-12T20:43:14.126Z,98106.13
2023-01-12T20:45:44.410Z,98098.88
2023-01-12T20:48:14.917Z,98093.53
2023-01-12T20:50:44.727Z,98098.88
2023-01-12T20:53:13.496Z,98101.78
2023-01-12T20:55:45.562Z,98099.09
2023-01-12T20:58:14.375Z,98107.13
2023-01-12T21:00:44.407Z,98101.78
2023-01-12T21:03:13.333Z,98102.75
2023-01-12T21:05:43.060Z,98106.31
2023-01-12T21:08:11.865Z,98109.81
2023-01-12T21:10:40.849Z,98103.44
2023-01-12T21:13:09.673Z,98098.25
2023-01-12T21:15:38.369Z,98103.44
2023-01-12T21:18:08.316Z,98099.91
2023-01-12T21:20:37.130Z,98100.75
2023-01-12T21:23:05.719Z,98095.38
2023-01-12T21:25:34.582Z,98103.25
2023-01-12T21:28:04.037Z,98097.06
2023-01-12T21:30:32.959Z,98102.44
2023-01-12T21:33:01.568Z,98097.06
2023-01-12T21:35:31.676Z,98095.22
2023-01-12T21:38:00.406Z,98108.63
2023-01-12T21:40:28.947Z,98096.22
2023-01-12T21:43:08.987Z,98097.06
2023-01-12T21:45:37.753Z,98094.03
2023-01-12T21:48:07.059Z,98088.81
2023-01-12T21:50:37.302Z,98084.47
2023-01-12T21:53:06.721Z,98089.84
2023-01-12T21:55:35.551Z,98097.06
2023-01-12T21:58:04.281Z,98086.34
2023-01-12T22:00:33.060Z,98085.66
2023-01-12T22:03:01.732Z,98082.16
2023-01-12T22:05:30.377Z,98080.31
2023-01-12T22:08:00.412Z,98074.94
2023-01-12T22:10:31.503Z,98072.25
2023-01-12T22:13:02.590Z,98074.09
2023-01-12T22:15:31.687Z,98079.47
2023-01-12T22:18:00.765Z,98081.28
2023-01-12T22:20:29.477Z,98079.63
2023-01-12T22:22:59.643Z,98087.53
2023-01-12T22:25:28.236Z,98092.03
2023-01-12T22:27:58.084Z,98079.63
2023-01-12T22:30:27.945Z,98076.94
2023-01-12T22:32:57.123Z,98082.31
2023-01-12T22:35:26.269Z,98069.72
2023-01-12T22:37:55.885Z,98064.34
2023-01-12T22:40:25.895Z,98064.34
2023-01-12T22:43:11.989Z,98071.59
2023-01-12T22:45:40.841Z,98066.22
2023-01-12T22:48:09.631Z,98072.41
2023-01-12T22:50:38.485Z,98065.19
2023-01-12T22:53:07.290Z,98080.47
2023-01-12T22:55:40.344Z,98069.72
2023-01-12T22:58:09.392Z,98065.38
2023-01-12T23:00:39.916Z,98060.84
2023-01-12T23:03:09.901Z,98066.22
2023-01-12T23:05:45.893Z,98059.81
2023-01-12T23:08:14.865Z,98066.22
2023-01-12T23:10:44.903Z,98060.84
2023-01-12T23:13:17.251Z,98064.34
2023-01-12T23:15:48.153Z,98069.72
2023-01-12T23:18:18.413Z,98065.19
2023-01-12T23:20:47.316Z,98068.91
2023-01-12T23:23:17.859Z,98064.34
2023-01-12T23:25:47.992Z,98062.50
2023-01-12T23:28:17.049Z,98059.00
2023-01-12T23:30:45.790Z,98054.44
2023-01-12T23:33:14.465Z,98050.94
2023-01-12T23:35:43.699Z,98043.72
2023-01-12T23:38:16.473Z,98048.25
2023-01-12T23:40:45.345Z,98046.59
2023-01-12T23:43:15.678Z,98047.44
2023-01-12T23:45:44.275Z,98042.06
2023-01-12T23:48:13.531Z,98049.28
2023-01-12T23:50:42.364Z,98046.59
2023-01-12T23:53:10.946Z,98048.25
2023-01-12T23:55:40.509Z,98046.59
2023-01-12T23:58:09.396Z,98040.41
